Time;durP1;ratioP1;P1;durP2;ratioP2;P2;SDS_P1;SDS_P2;PMS_P1;PMS_P2;Temp;Humidity;BMP_temperature;BMP_pressure;BME280_temperature;BME280_humidity;BME280_pressure;Samples;Min_cycle;Max_cycle;Signal;HPM_P1;HPM_P2
2023/06/27 00:01:39;;;;;;;6.00;2.80;;;20.70;57.70;;;;;;4948884;28;20220;-70
2023/06/27 00:04:06;;;;;;;5.80;2.77;;;20.60;57.70;;;;;;4956558;28;20299;-69
2023/06/27 00:06:32;;;;;;;8.50;2.60;;;20.70;57.70;;;;;;4954426;28;20432;-70
2023/06/27 00:08:57;;;;;;;3.80;2.33;;;20.70;57.60;;;;;;4950506;28;20675;-70
2023/06/27 00:11:23;;;;;;;4.70;2.47;;;20.80;57.20;;;;;;4952510;29;20214;-70
2023/06/27 00:13:49;;;;;;;4.80;2.53;;;20.80;57.30;;;;;;4943252;28;20214;-70
2023/06/27 00:16:17;;;;;;;4.63;2.30;;;20.80;57.20;;;;;;4948552;29;20428;-70
2023/06/27 00:18:47;;;;;;;4.13;2.23;;;20.80;57.30;;;;;;4948092;28;20438;-70
2023/06/27 00:21:15;;;;;;;5.93;2.83;;;20.70;57.40;;;;;;4945139;29;20496;-70
2023/06/27 00:23:42;;;;;;;5.37;2.80;;;20.70;57.60;;;;;;4952259;28;21230;-70
2023/06/27 00:26:08;;;;;;;6.23;2.50;;;20.70;57.80;;;;;;4952169;28;20449;-71
2023/06/27 00:28:34;;;;;;;5.27;2.70;;;20.60;58.00;;;;;;4952602;28;20459;-71
2023/06/27 00:31:00;;;;;;;12.83;3.10;;;20.70;57.80;;;;;;4948985;28;20268;-70
2023/06/27 00:33:25;;;;;;;5.30;2.70;;;20.50;58.50;;;;;;4952201;28;20186;-73
2023/06/27 00:35:51;;;;;;;4.23;2.73;;;20.40;58.70;;;;;;4951634;28;20199;-70
2023/06/27 00:38:17;;;;;;;5.00;2.60;;;20.30;58.90;;;;;;4952002;28;20189;-70
2023/06/27 00:40:43;;;;;;;7.07;3.07;;;20.20;59.10;;;;;;4949123;28;20556;-71
2023/06/27 00:43:09;;;;;;;9.03;3.33;;;20.10;59.50;;;;;;4951754;28;20449;-71
2023/06/27 00:45:34;;;;;;;4.93;2.67;;;20.10;59.60;;;;;;4951504;29;20259;-70
2023/06/27 00:48:00;;;;;;;4.43;2.60;;;20.00;59.70;;;;;;4951777;28;20240;-71
2023/06/27 00:50:27;;;;;;;5.93;2.60;;;20.10;59.60;;;;;;4952485;28;20252;-71
2023/06/27 00:52:54;;;;;;;4.40;2.40;;;20.20;59.50;;;;;;4955514;29;20549;-71
2023/06/27 00:55:21;;;;;;;3.73;2.67;;;20.30;59.30;;;;;;4952174;28;20445;-71
2023/06/27 00:57:47;;;;;;;3.97;2.47;;;20.10;59.50;;;;;;4948340;29;20473;-70
2023/06/27 01:00:16;;;;;;;6.30;2.83;;;19.90;60.10;;;;;;4946656;28;20488;-69
2023/06/27 01:02:48;;;;;;;5.20;2.30;;;20.10;59.90;;;;;;4951929;28;20457;-71
2023/06/27 01:05:15;;;;;;;3.90;2.13;;;20.20;59.50;;;;;;4953080;28;20518;-72
2023/06/27 01:07:56;;;;;;;4.93;2.37;;;20.20;59.20;;;;;;4947792;29;20448;-71
2023/06/27 01:10:38;;;;;;;4.00;2.40;;;20.10;59.60;;;;;;4945937;28;20477;-70
2023/06/27 01:13:15;;;;;;;8.93;2.10;;;20.10;59.50;;;;;;4967244;28;20448;-71
2023/06/27 01:15:41;;;;;;;5.93;2.93;;;20.10;59.60;;;;;;4957571;28;21172;-69
2023/06/27 01:18:08;;;;;;;4.17;2.10;;;20.10;59.60;;;;;;4952066;29;20436;-70
2023/06/27 01:20:34;;;;;;;5.70;2.40;;;20.10;59.70;;;;;;4940876;29;20523;-70
2023/06/27 01:23:29;;;;;;;6.00;2.80;;;20.00;60.10;;;;;;4946998;28;20846;-70
2023/06/27 01:26:05;;;;;;;6.70;2.57;;;20.00;60.00;;;;;;4947776;28;20514;-71
2023/06/27 01:28:32;;;;;;;5.97;2.70;;;20.00;60.30;;;;;;4951727;28;20463;-70
2023/06/27 01:31:01;;;;;;;8.97;2.90;;;19.90;60.40;;;;;;4931467;29;20502;-71
2023/06/27 01:33:41;;;;;;;4.37;2.40;;;19.90;60.40;;;;;;4953004;29;20494;-71
2023/06/27 01:36:33;;;;;;;5.77;2.83;;;19.80;60.70;;;;;;4954095;28;20852;-71
2023/06/27 01:39:32;;;;;;;8.67;2.80;;;19.90;60.60;;;;;;4937713;29;20497;-71
2023/06/27 01:42:08;;;;;;;4.47;2.90;;;20.00;60.40;;;;;;4948230;29;20471;-70
2023/06/27 01:44:34;;;;;;;10.00;3.30;;;19.90;60.40;;;;;;4953488;28;20450;-71
2023/06/27 01:47:00;;;;;;;8.03;3.27;;;19.90;60.40;;;;;;4958341;28;20519;-70
2023/06/27 01:49:25;;;;;;;7.07;2.73;;;19.80;60.70;;;;;;4956654;28;20493;-71
2023/06/27 01:51:54;;;;;;;5.27;2.77;;;19.80;60.70;;;;;;4957325;28;20661;-71
2023/06/27 01:54:20;;;;;;;5.20;2.47;;;19.90;60.70;;;;;;4958193;28;20658;-70
2023/06/27 01:56:46;;;;;;;7.60;3.10;;;19.70;61.00;;;;;;4958274;28;20519;-70
2023/06/27 01:59:11;;;;;;;7.10;2.80;;;19.70;61.00;;;;;;4957089;28;20336;-72
2023/06/27 02:01:37;;;;;;;5.20;2.53;;;19.70;61.20;;;;;;4954155;28;20254;-71
2023/06/27 02:04:03;;;;;;;6.93;2.40;;;19.70;61.20;;;;;;4955247;28;20207;-71
2023/06/27 02:06:29;;;;;;;5.53;2.90;;;19.80;61.00;;;;;;4955448;28;20192;-71
2023/06/27 02:08:54;;;;;;;5.20;2.47;;;19.80;60.70;;;;;;4954603;28;20587;-71
2023/06/27 02:11:20;;;;;;;4.10;2.20;;;19.70;61.00;;;;;;4953812;28;20212;-72
2023/06/27 02:13:45;;;;;;;4.20;2.53;;;19.60;61.30;;;;;;4953015;29;20196;-71
2023/06/27 02:16:11;;;;;;;10.20;2.90;;;19.60;61.30;;;;;;4956779;29;20288;-71
2023/06/27 02:18:37;;;;;;;7.43;2.97;;;19.60;61.30;;;;;;4955629;28;20316;-71
2023/06/27 02:21:02;;;;;;;7.47;3.13;;;19.60;61.50;;;;;;4949343;28;20225;-71
2023/06/27 02:23:28;;;;;;;7.77;3.00;;;19.60;61.50;;;;;;4955756;28;20188;-71
2023/06/27 02:25:54;;;;;;;6.10;2.80;;;19.50;61.90;;;;;;4955499;28;20192;-71
2023/06/27 02:28:20;;;;;;;6.13;2.77;;;19.60;61.70;;;;;;4956549;28;20192;-72
2023/06/27 02:30:46;;;;;;;6.60;2.50;;;19.60;61.70;;;;;;4951163;29;20479;-71
2023/06/27 02:33:11;;;;;;;8.50;2.30;;;19.60;61.50;;;;;;4953342;29;20234;-71
2023/06/27 02:35:37;;;;;;;5.00;2.67;;;19.70;61.30;;;;;;4951271;28;20557;-71
2023/06/27 02:38:02;;;;;;;6.60;3.53;;;19.60;61.30;;;;;;4956602;28;20679;-70
2023/06/27 02:40:28;;;;;;;5.00;2.70;;;19.50;61.60;;;;;;4991792;23;20230;-72
2023/06/27 02:42:54;;;;;;;8.30;2.50;;;19.50;61.60;;;;;;4987204;28;20187;-73
2023/06/27 02:45:19;;;;;;;4.43;2.43;;;19.40;61.90;;;;;;4992539;28;20268;-72
2023/06/27 02:47:45;;;;;;;7.03;2.80;;;19.50;62.00;;;;;;4990899;28;20191;-74
2023/06/27 02:50:10;;;;;;;6.13;2.50;;;19.50;62.00;;;;;;4983075;28;20225;-72
2023/06/27 02:52:36;;;;;;;4.30;2.77;;;19.50;61.90;;;;;;4990089;28;20277;-73
2023/06/27 02:55:02;;;;;;;10.10;3.60;;;19.50;61.70;;;;;;4992058;28;20198;-71
2023/06/27 02:57:29;;;;;;;3.80;2.40;;;19.50;61.70;;;;;;4992007;28;20190;-71
2023/06/27 02:59:55;;;;;;;5.77;2.20;;;19.50;62.00;;;;;;4986649;28;20222;-72
2023/06/27 03:02:21;;;;;;;6.43;2.87;;;19.40;61.90;;;;;;4991618;28;20438;-71
2023/06/27 03:04:47;;;;;;;8.83;2.57;;;19.30;62.20;;;;;;4991138;28;20695;-73
2023/06/27 03:07:13;;;;;;;4.70;2.90;;;19.40;62.20;;;;;;4990228;28;20193;-71
2023/06/27 03:09:39;;;;;;;8.67;2.80;;;19.40;61.90;;;;;;4987459;28;21603;-71
2023/06/27 03:12:05;;;;;;;8.97;2.80;;;19.30;62.00;;;;;;4984876;28;20512;-71
2023/06/27 03:14:31;;;;;;;6.47;2.93;;;19.10;62.80;;;;;;4988684;28;20191;-71
2023/06/27 03:16:56;;;;;;;6.33;2.77;;;19.10;62.80;;;;;;4989293;28;20480;-73
2023/06/27 03:19:22;;;;;;;5.40;3.00;;;19.10;62.80;;;;;;4990432;28;20301;-71
2023/06/27 03:21:47;;;;;;;3.37;2.40;;;19.20;62.80;;;;;;4988448;28;20222;-73
2023/06/27 03:24:13;;;;;;;5.30;2.87;;;19.20;62.50;;;;;;4987326;28;20206;-73
2023/06/27 03:26:39;;;;;;;5.27;2.80;;;19.20;62.50;;;;;;4991737;28;20661;-74
2023/06/27 03:29:04;;;;;;;7.60;3.17;;;19.10;62.60;;;;;;4991569;28;20312;-74
2023/06/27 03:31:30;;;;;;;6.97;2.93;;;18.90;62.90;;;;;;4984697;28;20288;-72
2023/06/27 03:33:57;;;;;;;4.80;2.63;;;18.90;63.10;;;;;;4995366;28;20182;-71
2023/06/27 03:36:24;;;;;;;4.33;2.50;;;19.00;62.90;;;;;;4996740;28;20261;-72
2023/06/27 03:38:51;;;;;;;5.20;2.83;;;19.00;62.90;;;;;;4995210;28;20508;-72
2023/06/27 03:41:16;;;;;;;6.03;2.73;;;18.90;62.90;;;;;;4987037;28;20485;-72
2023/06/27 03:43:42;;;;;;;6.60;2.90;;;18.80;63.20;;;;;;4986071;28;20942;-73
2023/06/27 03:46:12;;;;;;;5.30;2.77;;;18.90;62.90;;;;;;4995203;28;20190;-72
2023/06/27 03:48:38;;;;;;;4.53;2.40;;;18.80;63.20;;;;;;4988266;28;20193;-72
2023/06/27 03:51:03;;;;;;;7.60;2.83;;;18.90;63.10;;;;;;4984429;28;20476;-72
2023/06/27 03:53:29;;;;;;;5.40;2.90;;;19.00;62.50;;;;;;4995785;28;20183;-72
2023/06/27 03:55:55;;;;;;;4.63;2.77;;;19.00;62.60;;;;;;5006613;28;20217;-71
2023/06/27 03:58:20;;;;;;;5.77;2.80;;;19.10;62.50;;;;;;4996169;28;20253;-72
2023/06/27 04:00:46;;;;;;;7.10;2.60;;;19.10;62.30;;;;;;4986760;28;20234;-72
2023/06/27 04:03:11;;;;;;;4.90;2.57;;;19.10;62.20;;;;;;4987533;28;20186;-71
2023/06/27 04:05:37;;;;;;;4.00;2.30;;;19.20;61.70;;;;;;4991154;28;20661;-71
2023/06/27 04:08:03;;;;;;;4.30;2.70;;;19.20;61.90;;;;;;4989503;28;20232;-71
2023/06/27 04:10:28;;;;;;;3.40;2.50;;;19.00;62.20;;;;;;4980065;28;20218;-71
2023/06/27 04:12:54;;;;;;;4.50;2.70;;;18.90;62.60;;;;;;4985930;28;20276;-70
2023/06/27 04:15:19;;;;;;;6.67;2.57;;;18.90;62.90;;;;;;4987868;28;20195;-72
2023/06/27 04:17:45;;;;;;;6.37;2.33;;;18.90;62.90;;;;;;4992931;28;20197;-71
2023/06/27 04:20:12;;;;;;;5.30;2.73;;;18.80;62.60;;;;;;4983231;28;20772;-72
2023/06/27 04:22:37;;;;;;;6.10;2.30;;;18.70;62.90;;;;;;4985166;28;20814;-74
2023/06/27 04:25:04;;;;;;;4.50;2.20;;;18.80;62.80;;;;;;4989120;28;20449;-71
2023/06/27 04:27:29;;;;;;;6.93;2.87;;;18.90;62.80;;;;;;4989540;28;20433;-72
2023/06/27 04:29:56;;;;;;;5.20;2.60;;;18.80;62.50;;;;;;4977724;28;20473;-72
2023/06/27 04:32:22;;;;;;;5.73;2.63;;;18.80;62.80;;;;;;4979189;28;20199;-73
2023/06/27 04:34:48;;;;;;;3.90;2.40;;;19.00;62.30;;;;;;4988680;28;20445;-72
2023/06/27 04:37:18;;;;;;;8.53;3.13;;;18.80;62.50;;;;;;4985505;28;20447;-72
2023/06/27 04:39:43;;;;;;;6.90;2.30;;;18.70;62.90;;;;;;4987424;28;20582;-72
2023/06/27 04:42:10;;;;;;;5.23;2.40;;;18.70;62.90;;;;;;4988980;28;20498;-72
2023/06/27 04:44:35;;;;;;;7.93;2.87;;;18.80;62.60;;;;;;4991214;28;20201;-73
2023/06/27 04:47:01;;;;;;;5.37;2.67;;;18.70;62.50;;;;;;4991258;28;20432;-72
2023/06/27 04:49:26;;;;;;;6.33;2.50;;;18.70;62.80;;;;;;4986576;28;20461;-74
2023/06/27 04:51:52;;;;;;;7.17;2.47;;;18.60;62.90;;;;;;4986289;28;20276;-73
2023/06/27 04:54:18;;;;;;;7.70;2.70;;;18.80;62.90;;;;;;4985791;28;20212;-73
2023/06/27 04:56:43;;;;;;;3.80;2.33;;;18.90;62.60;;;;;;4989327;28;20214;-73
2023/06/27 04:59:10;;;;;;;10.10;3.23;;;18.90;62.20;;;;;;4988998;28;20539;-74
2023/06/27 05:01:36;;;;;;;6.13;2.70;;;18.80;62.50;;;;;;4989215;28;20228;-74
2023/06/27 05:04:04;;;;;;;7.60;2.50;;;18.70;62.60;;;;;;4987617;28;20432;-74
2023/06/27 05:06:33;;;;;;;5.57;2.00;;;18.70;62.80;;;;;;4997319;28;20243;-73
2023/06/27 05:09:01;;;;;;;5.77;2.53;;;18.80;62.90;;;;;;4998003;28;20427;-73
2023/06/27 05:11:27;;;;;;;5.40;2.27;;;18.80;62.60;;;;;;4992513;28;20477;-73
2023/06/27 05:13:53;;;;;;;7.63;2.90;;;19.00;62.60;;;;;;4991871;28;20433;-73
2023/06/27 05:16:19;;;;;;;6.40;2.80;;;19.10;62.00;;;;;;5003783;28;20448;-71
2023/06/27 05:18:45;;;;;;;7.60;2.97;;;19.00;62.30;;;;;;4994677;28;20942;-72
2023/06/27 05:21:11;;;;;;;10.93;2.97;;;19.20;62.20;;;;;;4981202;28;20507;-72
2023/06/27 05:23:36;;;;;;;3.73;2.33;;;19.00;62.30;;;;;;4993003;28;20181;-72
2023/06/27 05:26:02;;;;;;;4.37;2.80;;;18.90;62.60;;;;;;4994467;28;20438;-72
2023/06/27 05:28:29;;;;;;;5.50;2.30;;;19.00;62.80;;;;;;4993709;28;20278;-72
2023/06/27 05:30:56;;;;;;;4.77;2.70;;;19.20;62.30;;;;;;4982118;28;20206;-72
2023/06/27 05:33:22;;;;;;;4.83;2.47;;;19.40;61.60;;;;;;4993276;28;20434;-71
2023/06/27 05:35:47;;;;;;;7.20;2.20;;;19.50;61.30;;;;;;4993282;28;20436;-71
2023/06/27 05:38:13;;;;;;;5.57;2.53;;;19.20;61.00;;;;;;4991587;28;20198;-71
2023/06/27 05:40:38;;;;;;;8.33;2.90;;;19.00;62.00;;;;;;4989173;28;20236;-71
2023/06/27 05:43:04;;;;;;;7.60;3.00;;;19.00;61.90;;;;;;4993516;28;20192;-71
2023/06/27 05:45:29;;;;;;;4.20;2.50;;;19.10;62.20;;;;;;4989872;28;20199;-72
2023/06/27 05:47:55;;;;;;;6.23;2.93;;;19.20;61.70;;;;;;4993869;28;20274;-72
2023/06/27 05:50:21;;;;;;;7.40;3.50;;;19.50;61.30;;;;;;4990531;28;20215;-71
2023/06/27 05:52:46;;;;;;;5.37;2.83;;;19.40;61.00;;;;;;4989220;28;20220;-71
2023/06/27 05:55:12;;;;;;;9.00;3.40;;;19.40;61.00;;;;;;4998586;28;20726;-73
2023/06/27 05:57:38;;;;;;;4.50;2.63;;;19.40;61.50;;;;;;4997241;28;20191;-72
2023/06/27 06:00:06;;;;;;;4.50;2.50;;;19.50;61.00;;;;;;4984569;28;20689;-72
2023/06/27 06:02:32;;;;;;;8.50;2.70;;;19.50;60.40;;;;;;4987141;28;20265;-72
2023/06/27 06:04:57;;;;;;;5.93;3.00;;;19.40;60.10;;;;;;4997457;28;20533;-72
2023/06/27 06:07:23;;;;;;;8.63;2.83;;;19.40;60.40;;;;;;4991241;28;20193;-71
2023/06/27 06:09:49;;;;;;;6.03;2.87;;;19.20;61.30;;;;;;4988098;28;20293;-72
2023/06/27 06:12:14;;;;;;;6.77;2.67;;;19.30;61.50;;;;;;4989482;28;20579;-71
2023/06/27 06:14:40;;;;;;;5.27;2.97;;;19.40;60.30;;;;;;4992964;28;20730;-70
2023/06/27 06:17:05;;;;;;;7.80;2.60;;;19.50;59.70;;;;;;4992396;28;20205;-71
2023/06/27 06:19:31;;;;;;;4.73;2.20;;;19.80;59.60;;;;;;4989070;28;20235;-71
2023/06/27 06:21:57;;;;;;;5.00;3.00;;;20.00;58.50;;;;;;4991293;28;20211;-71
2023/06/27 06:24:22;;;;;;;10.03;3.47;;;20.00;58.50;;;;;;4988219;28;20189;-72
2023/06/27 06:26:48;;;;;;;9.17;2.33;;;20.20;58.70;;;;;;4995331;28;20199;-71
2023/06/27 06:29:13;;;;;;;5.30;2.40;;;20.20;57.60;;;;;;5004037;28;20192;-71
2023/06/27 06:31:40;;;;;;;5.40;2.80;;;20.30;57.60;;;;;;5001343;28;20195;-72
2023/06/27 06:34:06;;;;;;;4.13;2.33;;;20.40;56.20;;;;;;4994397;28;20275;-72
2023/06/27 06:36:32;;;;;;;5.00;2.70;;;20.40;55.80;;;;;;4993603;28;20880;-72
2023/06/27 06:38:58;;;;;;;7.50;3.53;;;20.50;55.80;;;;;;4993228;28;20208;-72
2023/06/27 06:41:24;;;;;;;3.97;2.57;;;20.40;56.20;;;;;;4988528;28;20494;-71
2023/06/27 06:43:50;;;;;;;4.27;2.37;;;20.30;56.00;;;;;;4985168;28;20813;-72
2023/06/27 06:46:16;;;;;;;6.80;2.43;;;20.20;55.70;;;;;;4993454;28;20897;-70
2023/06/27 06:48:41;;;;;;;4.90;3.00;;;20.10;56.20;;;;;;4992811;28;20191;-72
2023/06/27 06:51:08;;;;;;;4.57;2.30;;;20.20;56.10;;;;;;4979751;28;20208;-71
2023/06/27 06:53:34;;;;;;;7.43;2.70;;;20.40;56.00;;;;;;4993979;28;20196;-72
2023/06/27 06:55:59;;;;;;;4.00;2.57;;;20.60;55.00;;;;;;4993694;28;20796;-71
2023/06/27 06:58:25;;;;;;;8.23;2.90;;;20.10;55.40;;;;;;4992885;28;20427;-71
2023/06/27 07:00:51;;;;;;;3.30;2.27;;;20.20;55.40;;;;;;4988741;28;20239;-72
2023/06/27 07:03:17;;;;;;;9.23;2.30;;;20.40;55.00;;;;;;5000201;28;20243;-72
2023/06/27 07:05:43;;;;;;;5.40;2.50;;;20.30;54.80;;;;;;4996352;28;20288;-71
2023/06/27 07:08:09;;;;;;;6.20;2.40;;;20.10;55.60;;;;;;4998003;28;20462;-72
2023/06/27 07:10:36;;;;;;;6.53;2.80;;;20.10;56.80;;;;;;4988360;28;20214;-72
2023/06/27 07:13:01;;;;;;;4.43;2.63;;;20.40;56.40;;;;;;4991040;28;20429;-72
2023/06/27 07:15:28;;;;;;;6.60;2.43;;;20.30;56.10;;;;;;4996031;28;20477;-72
2023/06/27 07:17:54;;;;;;;7.73;2.90;;;20.30;57.20;;;;;;4989800;28;20601;-73
2023/06/27 07:20:22;;;;;;;5.50;2.80;;;20.40;56.80;;;;;;4967030;28;20491;-71
2023/06/27 07:22:48;;;;;;;8.90;3.23;;;20.20;56.80;;;;;;4989909;28;20223;-71
2023/06/27 07:25:14;;;;;;;6.20;2.63;;;20.40;57.20;;;;;;4992231;28;20543;-72
2023/06/27 07:27:39;;;;;;;3.97;2.50;;;20.50;56.50;;;;;;4987172;28;20478;-72
2023/06/27 07:30:05;;;;;;;6.03;3.17;;;20.80;56.60;;;;;;4985299;28;20216;-72
2023/06/27 07:32:32;;;;;;;5.93;2.90;;;21.00;55.60;;;;;;4983919;28;20181;-71
2023/06/27 07:34:58;;;;;;;4.83;2.60;;;20.80;56.00;;;;;;4991465;28;20447;-72
2023/06/27 07:37:24;;;;;;;4.97;2.53;;;20.80;56.10;;;;;;4994283;28;20522;-72
2023/06/27 07:39:49;;;;;;;7.47;3.30;;;20.90;55.80;;;;;;4988082;28;20499;-72
2023/06/27 07:42:17;;;;;;;6.13;2.70;;;20.90;55.70;;;;;;4990432;28;20195;-71
2023/06/27 07:44:43;;;;;;;7.63;2.73;;;21.00;55.80;;;;;;4996706;28;20288;-72
2023/06/27 07:47:10;;;;;;;6.13;3.10;;;21.30;55.60;;;;;;4995089;28;20440;-73
2023/06/27 07:49:39;;;;;;;4.60;2.70;;;21.30;54.90;;;;;;4987042;28;20491;-72
2023/06/27 07:52:08;;;;;;;4.83;2.87;;;21.50;54.80;;;;;;4989936;28;20447;-72
2023/06/27 07:54:34;;;;;;;4.47;2.97;;;21.40;54.50;;;;;;4994380;28;20447;-72
2023/06/27 07:57:00;;;;;;;5.40;3.03;;;21.50;54.50;;;;;;4988547;28;20440;-73
2023/06/27 07:59:25;;;;;;;7.57;3.30;;;20.80;54.50;;;;;;4987079;28;20455;-73
2023/06/27 08:01:52;;;;;;;4.50;2.27;;;20.50;55.70;;;;;;4984385;28;20292;-73
2023/06/27 08:04:17;;;;;;;7.37;3.00;;;20.90;55.40;;;;;;4992254;28;20208;-72
2023/06/27 08:06:43;;;;;;;5.53;2.60;;;21.30;54.50;;;;;;4987668;28;20953;-73
2023/06/27 08:09:09;;;;;;;4.23;2.60;;;21.00;54.00;;;;;;4991103;28;20189;-73
2023/06/27 08:11:34;;;;;;;6.13;2.87;;;20.70;54.60;;;;;;4986670;28;20190;-73
2023/06/27 08:14:01;;;;;;;5.77;2.67;;;20.70;55.20;;;;;;4993724;28;20206;-72
2023/06/27 08:16:27;;;;;;;6.67;2.90;;;21.00;54.20;;;;;;4989540;28;20188;-72
2023/06/27 08:18:53;;;;;;;7.07;3.20;;;21.10;54.50;;;;;;4991950;28;20451;-72
2023/06/27 08:21:19;;;;;;;9.33;2.80;;;21.10;54.00;;;;;;4989446;28;20754;-71
2023/06/27 08:23:44;;;;;;;3.70;2.77;;;21.00;54.40;;;;;;4990766;28;20268;-73
2023/06/27 08:26:17;;;;;;;4.57;2.60;;;20.90;55.30;;;;;;4992034;28;20613;-73
2023/06/27 08:28:43;;;;;;;5.27;2.90;;;21.20;54.40;;;;;;4987192;28;20185;-72
2023/06/27 08:31:11;;;;;;;5.17;2.77;;;21.10;54.10;;;;;;4985520;28;20618;-73
2023/06/27 08:33:37;;;;;;;7.00;2.70;;;20.60;55.40;;;;;;4993050;28;20447;-71
2023/06/27 08:36:02;;;;;;;6.20;3.73;;;20.80;55.20;;;;;;4989315;28;20443;-72
2023/06/27 08:38:28;;;;;;;4.70;2.90;;;20.70;55.40;;;;;;4987364;28;20506;-72
2023/06/27 08:40:54;;;;;;;4.50;3.17;;;20.80;55.30;;;;;;4985157;28;20220;-72
2023/06/27 08:43:21;;;;;;;6.73;2.90;;;20.90;55.40;;;;;;4991446;28;20259;-72
2023/06/27 08:45:48;;;;;;;8.53;3.10;;;21.20;54.90;;;;;;4993009;28;20528;-72
2023/06/27 08:48:16;;;;;;;13.60;3.83;;;21.40;54.80;;;;;;4987226;28;20817;-72
2023/06/27 08:50:42;;;;;;;5.30;3.30;;;21.50;54.40;;;;;;4976705;28;20897;-72
2023/06/27 08:53:14;;;;;;;9.97;2.90;;;21.40;55.20;;;;;;4983767;28;20991;-73
2023/06/27 08:55:49;;;;;;;7.80;2.87;;;21.80;54.10;;;;;;4991468;28;20463;-73
2023/06/27 08:58:15;;;;;;;4.80;3.13;;;22.00;53.80;;;;;;4994239;28;20430;-72
2023/06/27 09:00:44;;;;;;;6.43;3.03;;;21.70;53.60;;;;;;4993601;28;20500;-73
2023/06/27 09:03:11;;;;;;;7.80;3.10;;;21.70;53.80;;;;;;4988317;28;20437;-72
2023/06/27 09:05:37;;;;;;;6.83;3.33;;;21.50;53.70;;;;;;4994912;28;20441;-72
2023/06/27 09:08:03;;;;;;;8.43;3.23;;;21.40;54.20;;;;;;4993084;28;20436;-72
2023/06/27 09:10:29;;;;;;;4.87;3.03;;;21.00;54.50;;;;;;4992735;28;20533;-72
2023/06/27 09:12:56;;;;;;;5.17;3.40;;;20.90;54.90;;;;;;4998967;28;20424;-73
2023/06/27 09:15:23;;;;;;;3.93;3.03;;;20.80;55.00;;;;;;4997583;28;20204;-73
2023/06/27 09:17:49;;;;;;;7.20;3.00;;;20.70;55.20;;;;;;4994464;28;20443;-73
2023/06/27 09:20:17;;;;;;;5.73;3.53;;;20.80;55.60;;;;;;4992906;28;20999;-72
2023/06/27 09:22:42;;;;;;;7.60;3.23;;;21.10;55.30;;;;;;4991357;28;20848;-72
2023/06/27 09:25:17;;;;;;;4.50;3.10;;;21.40;54.20;;;;;;4992823;28;20439;-72
2023/06/27 09:27:46;;;;;;;6.03;3.17;;;21.80;53.80;;;;;;4996865;28;20448;-72
2023/06/27 09:30:12;;;;;;;10.17;3.20;;;21.90;53.30;;;;;;4989560;28;20502;-72
2023/06/27 09:32:58;;;;;;;7.30;3.37;;;21.70;53.80;;;;;;4995067;28;20437;-72
2023/06/27 09:35:25;;;;;;;10.30;2.90;;;21.40;54.40;;;;;;4988827;28;20435;-72
2023/06/27 09:37:52;;;;;;;5.60;3.20;;;21.80;53.70;;;;;;4986888;28;20864;-73
2023/06/27 09:40:27;;;;;;;7.90;2.60;;;21.50;53.80;;;;;;4989997;28;20488;-73
2023/06/27 09:42:55;;;;;;;7.30;2.93;;;21.80;53.80;;;;;;4995633;28;20840;-71
2023/06/27 09:45:27;;;;;;;7.60;3.13;;;22.10;52.80;;;;;;4993303;28;20864;-72
2023/06/27 09:47:53;;;;;;;4.47;3.43;;;22.10;52.60;;;;;;4993704;28;20450;-72
2023/06/27 09:50:27;;;;;;;8.70;3.37;;;22.20;52.40;;;;;;4982194;28;21191;-73
2023/06/27 09:52:55;;;;;;;5.13;2.80;;;22.40;51.70;;;;;;4996052;28;20487;-72
2023/06/27 09:55:24;;;;;;;4.63;3.07;;;22.50;51.70;;;;;;4995431;28;20444;-72
2023/06/27 09:57:50;;;;;;;7.93;4.00;;;22.20;52.10;;;;;;4995633;28;20531;-73
2023/06/27 10:00:22;;;;;;;6.20;3.20;;;21.50;53.20;;;;;;4988586;28;20519;-72
2023/06/27 10:02:51;;;;;;;8.10;2.97;;;22.00;52.90;;;;;;4991664;28;20433;-73
2023/06/27 10:05:19;;;;;;;6.30;3.27;;;22.50;51.60;;;;;;4989772;28;20442;-72
2023/06/27 10:07:47;;;;;;;3.60;2.97;;;22.70;50.60;;;;;;4994165;28;21009;-74
2023/06/27 10:10:13;;;;;;;6.93;2.80;;;22.90;50.30;;;;;;4990858;28;20468;-72
2023/06/27 10:12:39;;;;;;;5.37;3.17;;;23.00;49.90;;;;;;4990794;28;20453;-74
2023/06/27 10:15:07;;;;;;;6.93;3.50;;;23.40;50.10;;;;;;4994874;28;20450;-72
2023/06/27 10:17:33;;;;;;;9.23;3.53;;;23.80;49.00;;;;;;4995488;28;20527;-72
2023/06/27 10:19:59;;;;;;;10.20;3.30;;;23.10;48.30;;;;;;4987137;28;20546;-74
2023/06/27 10:22:29;;;;;;;5.80;2.70;;;22.50;49.50;;;;;;4994462;28;20438;-72
2023/06/27 10:24:59;;;;;;;6.87;3.40;;;22.50;50.20;;;;;;4991075;28;20481;-72
2023/06/27 10:27:31;;;;;;;4.53;2.67;;;22.30;49.80;;;;;;4995840;28;20423;-74
2023/06/27 10:29:56;;;;;;;5.30;3.00;;;22.10;50.30;;;;;;4990168;28;20496;-72
2023/06/27 10:32:35;;;;;;;5.70;3.33;;;22.00;50.50;;;;;;4992051;28;20431;-72
2023/06/27 10:35:09;;;;;;;6.20;3.10;;;22.40;49.70;;;;;;4997951;28;20214;-73
2023/06/27 10:37:35;;;;;;;5.13;2.47;;;22.90;48.90;;;;;;4998150;28;20442;-72
2023/06/27 10:40:01;;;;;;;7.17;2.77;;;23.10;48.30;;;;;;4994400;28;20479;-72
2023/06/27 10:42:29;;;;;;;7.40;3.13;;;22.90;49.50;;;;;;4998030;28;20203;-71
2023/06/27 10:45:04;;;;;;;6.47;3.10;;;22.50;49.90;;;;;;5004144;28;20198;-72
2023/06/27 10:47:52;;;;;;;4.70;2.97;;;22.80;49.70;;;;;;4996237;28;20539;-71
2023/06/27 10:50:21;;;;;;;10.83;3.20;;;22.60;49.50;;;;;;4985901;28;20468;-72
2023/06/27 10:53:01;;;;;;;7.00;2.93;;;22.60;49.50;;;;;;4993584;28;20495;-71
2023/06/27 10:55:28;;;;;;;6.90;3.30;;;22.70;49.00;;;;;;4998110;28;20450;-72
2023/06/27 10:58:09;;;;;;;5.23;2.93;;;22.60;49.70;;;;;;4997014;28;20442;-74
2023/06/27 11:00:39;;;;;;;8.80;2.80;;;22.20;49.40;;;;;;4986592;28;20487;-73
2023/06/27 11:03:06;;;;;;;6.47;4.17;;;22.30;49.70;;;;;;4991226;28;20435;-71
2023/06/27 11:05:57;;;;;;;6.17;3.40;;;22.60;49.00;;;;;;4993818;28;20470;-71
2023/06/27 11:08:27;;;;;;;6.67;2.37;;;22.80;48.60;;;;;;4987548;28;20446;-71
2023/06/27 11:10:59;;;;;;;3.80;2.60;;;23.30;48.10;;;;;;4986552;28;20546;-72
2023/06/27 11:13:27;;;;;;;8.00;3.67;;;23.40;47.50;;;;;;4992170;28;20428;-72
2023/06/27 11:15:54;;;;;;;8.30;2.70;;;23.80;46.70;;;;;;4992526;28;20437;-72
2023/06/27 11:18:21;;;;;;;4.20;2.70;;;23.70;47.40;;;;;;4995200;28;20452;-73
2023/06/27 11:20:49;;;;;;;9.30;3.07;;;23.90;46.60;;;;;;4992040;28;20570;-73
2023/06/27 11:23:15;;;;;;;5.67;2.87;;;23.60;47.30;;;;;;4993686;28;21080;-73
2023/06/27 11:25:43;;;;;;;6.30;3.20;;;23.20;47.40;;;;;;4993264;28;20434;-73
2023/06/27 11:28:15;;;;;;;5.60;2.77;;;22.60;49.30;;;;;;4992335;28;20459;-72
2023/06/27 11:30:41;;;;;;;7.70;3.53;;;22.50;49.50;;;;;;4986236;28;20485;-72
2023/06/27 11:33:07;;;;;;;9.30;2.87;;;22.50;49.30;;;;;;4984828;28;20483;-72
2023/06/27 11:35:38;;;;;;;6.33;2.90;;;22.40;49.50;;;;;;4993003;28;20460;-71
2023/06/27 11:38:08;;;;;;;4.90;3.07;;;22.60;48.90;;;;;;4986848;28;21298;-72
2023/06/27 11:40:33;;;;;;;7.53;3.80;;;22.70;49.00;;;;;;4983812;28;20577;-71
2023/06/27 11:43:04;;;;;;;4.77;2.47;;;22.70;49.10;;;;;;4994294;28;20514;-72
2023/06/27 11:45:31;;;;;;;6.33;3.00;;;22.90;48.90;;;;;;4989728;28;20188;-72
2023/06/27 11:47:58;;;;;;;6.93;2.67;;;23.40;47.80;;;;;;4993386;28;20537;-71
2023/06/27 11:50:24;;;;;;;6.23;3.50;;;23.70;46.50;;;;;;4987220;28;20471;-72
2023/06/27 11:52:52;;;;;;;7.13;2.80;;;24.10;45.30;;;;;;4986893;28;20455;-71
2023/06/27 11:55:18;;;;;;;6.90;3.07;;;24.20;45.70;;;;;;4993942;28;20429;-72
2023/06/27 11:57:48;;;;;;;7.07;3.77;;;23.60;46.10;;;;;;4993907;28;20431;-72
2023/06/27 12:00:18;;;;;;;8.27;4.50;;;22.90;47.80;;;;;;4989862;28;20496;-72
2023/06/27 12:02:54;;;;;;;5.00;3.30;;;22.80;47.90;;;;;;4988429;28;20526;-72
2023/06/27 12:05:21;;;;;;;5.50;3.20;;;23.10;47.40;;;;;;4988972;28;20445;-73
2023/06/27 12:08:09;;;;;;;4.80;2.63;;;23.10;47.50;;;;;;4997585;28;20470;-72
2023/06/27 12:11:03;;;;;;;6.03;3.53;;;23.50;46.70;;;;;;4991250;28;20479;-72
2023/06/27 12:13:38;;;;;;;7.10;3.50;;;23.40;47.30;;;;;;4990561;28;20486;-72
2023/06/27 12:16:04;;;;;;;10.70;3.73;;;23.60;47.10;;;;;;4987125;28;20425;-72
2023/06/27 12:18:31;;;;;;;5.67;2.80;;;22.80;47.80;;;;;;4994185;28;20445;-72
2023/06/27 12:20:58;;;;;;;5.77;3.20;;;22.60;48.30;;;;;;4989098;28;20498;-72
2023/06/27 12:23:25;;;;;;;8.17;3.50;;;22.80;48.50;;;;;;4988196;28;20427;-72
2023/06/27 12:25:51;;;;;;;8.53;3.60;;;23.10;48.10;;;;;;4995390;28;20443;-71
2023/06/27 12:28:17;;;;;;;3.60;2.83;;;23.00;47.30;;;;;;5000379;28;20463;-73
2023/06/27 12:30:43;;;;;;;7.30;3.47;;;23.40;47.10;;;;;;5000495;28;20217;-71
2023/06/27 12:33:09;;;;;;;6.37;3.40;;;23.50;46.70;;;;;;4996061;28;20432;-72
2023/06/27 12:35:35;;;;;;;6.93;3.67;;;23.20;47.40;;;;;;4994397;28;20447;-73
2023/06/27 12:38:01;;;;;;;7.50;3.07;;;23.60;47.00;;;;;;4988576;28;20485;-74
2023/06/27 12:40:27;;;;;;;8.67;3.10;;;23.90;45.80;;;;;;4989026;28;20614;-73
2023/06/27 12:42:54;;;;;;;8.30;3.70;;;23.30;47.30;;;;;;4988281;28;20554;-72
2023/06/27 12:45:20;;;;;;;6.37;3.40;;;23.70;46.50;;;;;;4985385;28;20475;-74
2023/06/27 12:47:46;;;;;;;6.20;3.03;;;23.60;46.30;;;;;;4990634;28;20449;-71